Friday, August 17, 2018, 10:52 PM EDT
Back to Local

KFZY, Fulton Oswego County Airport

Location: Fulton, NY, United States Lat: 43.35
Local Time: 10:52 PM EDT ( 2:52 GMT) Lon: -76.383
Time Zone: US/Eastern Elev: 475 ft

Show me the last for .
Show Decoded

2018-08-17 21:54 METAR KFZY 180154Z AUTO 19006KT 10SM BKN090 23/20 A2987 RMK AO2 LTG DSNT N AND
                 NW SLP111 T02280200 =
2018-08-17 20:54 METAR KFZY 180054Z AUTO 22004KT 10SM SCT033 SCT055 23/20 A2987 RMK AO2 SLP112
                 T02280200 =
2018-08-17 19:54 METAR KFZY 172354Z AUTO 21003KT 10SM FEW080 BKN100 23/20 A2986 RMK AO2 RAB01E39
                 SLP109 P0001 60012 T02330200 10283 20233 58002 =
2018-08-17 18:54 METAR KFZY 172254Z AUTO 23004KT 9SM OVC070 26/22 A2987 RMK AO2 LTG DSNT SE
                 SLP112 T02560222 =
2018-08-17 17:54 METAR KFZY 172154Z AUTO 00000KT 10SM FEW050 BKN100 BKN120 26/22 A2986 RMK AO2
                 RAE2059 TSE2055 SLP110 P0000 T02560222 =
2018-08-17 17:07 METAR KFZY 172107Z AUTO 32003KT 10SM FEW009 SCT070 BKN100 26/22 A2987 RMK AO2
                 LTG DSNT NE AND E RAE2059 TSE2055 P0000 T02610222 =
2018-08-17 17:01 METAR KFZY 172101Z AUTO VRB03KT 10SM VCTS FEW015 SCT050 BKN110 26/22 A2987 RMK
                 AO2 LTG DSNT NE AND E RAE2059 TSE2055 P0000 T02610222 =
2018-08-17 16:54 METAR KFZY 172054Z AUTO VRB03KT 8SM -TSRA FEW009 BKN044 OVC110 26/22 A2987 RMK
                 AO2 LTG DSNT E TSB33 SLP111 P0010 60011 T02560222 56007 =
2018-08-17 16:49 METAR KFZY 172049Z AUTO 34004KT 8SM -TSRA FEW008 BKN040 OVC070 26/23 A2987 RMK
                 AO2 LTG DSNT E AND SE TSB33 P0010 =
2018-08-17 16:36 METAR KFZY 172036Z AUTO 30007KT 3SM -TSRA FEW031 BKN040 OVC070 26/22 A2987 RMK
                 AO2 LTG DSNT NE-SE TSB33 P0010 T02610222 =
2018-08-17 16:34 METAR KFZY 172034Z AUTO 29006KT 1 1/2SM -TSRA SCT033 BKN040 OVC070 26/22 A2987
                 RMK AO2 LTG DSNT NE AND E TSB33 P0010 T02560217 =
2018-08-17 16:32 METAR KFZY 172032Z AUTO 28004KT 1SM VCTS -RA SCT033 BKN042 OVC070 26/22 A2987
                 RMK AO2 LTG DSNT NE AND E P0010 T02560217 =
2018-08-17 16:26 METAR KFZY 172026Z AUTO 26007KT 3/4SM +RA FEW033 BKN044 OVC080 26/23 A2987 RMK
                 AO2 LTG DSNT NE AND E P0009 T02610228 =
2018-08-17 16:23 METAR KFZY 172023Z AUTO 25004KT 1 1/2SM RA SCT031 BKN044 OVC060 26/23 A2987 RMK
                 AO2 LTG DSNT NE AND E P0005 T02610228 =
2018-08-17 15:54 METAR KFZY 171954Z AUTO 22003KT 8SM -RA SCT025 BKN039 OVC050 26/22 A2987 RMK AO2
                 LTG DSNT NE-S RAE06B23 TSB08E23B34E54 SLP113 P0001 T02610222 =
2018-08-17 15:34 METAR KFZY 171934Z AUTO 28006KT 5SM -TSRA SCT031 BKN040 OVC070 27/22 A2988 RMK
                 AO2 RAE06B23 TSB08E23B34 P0000 T02670217 =
2018-08-17 15:29 METAR KFZY 171929Z AUTO 28005KT 8SM -RA SCT034 BKN047 OVC110 28/21 A2988 RMK AO2
                 LTG DSNT E RAE06B23 TSB08E23 P0000 T02780211 =
2018-08-17 15:14 METAR KFZY 171914Z AUTO 25006KT 10SM TS FEW034 BKN065 OVC075 28/22 A2988 RMK AO2
                 LTG DSNT S RAE06 TSB08 P0000 T02830217 =
2018-08-17 14:54 METAR KFZY 171854Z AUTO 23005KT 10SM -RA FEW027 SCT033 OVC065 28/21 A2989 RMK
                 AO2 RAB54 SLP119 P0000 T02780211 =
2018-08-17 14:34 METAR KFZY 171834Z AUTO 23005KT 10SM BKN030 OVC036 28/21 A2990 RMK AO2 T02780211
                 =
2018-08-17 14:13 METAR KFZY 171813Z AUTO 20008KT 10SM BKN028 BKN036 BKN085 28/21 A2990 RMK AO2
                 T02780206 =
2018-08-17 13:54 METAR KFZY 171754Z AUTO 21009KT 10SM FEW026 SCT040 BKN080 28/21 A2990 RMK AO2
                 SLP123 60011 T02830211 10283 20211 58020 =
2018-08-17 12:54 METAR KFZY 171654Z AUTO 21009KT 10SM FEW070 SCT090 BKN110 27/21 A2992 RMK AO2
                 SLP130 T02670211 =
2018-08-17 11:54 METAR KFZY 171554Z AUTO 17007KT 10SM BKN080 BKN100 25/21 A2995 RMK AO2 SLP137
                 T02500206 =
2018-08-17 10:54 METAR KFZY 171454Z AUTO 15004KT 9SM SCT035 OVC085 22/19 A2996 RMK AO2 RAB03E32
                 SLP143 P0007 60011 T02220194 58017 =
2018-08-17 10:21 METAR KFZY 171421Z AUTO VRB03KT 3SM -RA BR OVC034 21/19 A2998 RMK AO2 RAB03
                 P0006 T02110189 =
2018-08-17 10:09 METAR KFZY 171409Z AUTO VRB04KT 1 3/4SM +RA BR OVC035 21/19 A2998 RMK AO2 RAB03
                 P0004 T02110189 =
2018-08-17 09:54 METAR KFZY 171354Z AUTO VRB03KT 8SM OVC035 21/19 A2998 RMK AO2 RAB1257E20 SLP150
                 P0000 T02110189 =
2018-08-17 08:54 METAR KFZY 171254Z AUTO VRB03KT 10SM OVC036 21/19 A3000 RMK AO2 RAE45 SLP156
                 P0004 T02110189 =
2018-08-17 07:58 METAR KFZY 171158Z AUTO VRB05G16KT 3SM RA BR FEW009 BKN031 OVC044 21/19 A3001
                 RMK AO2 P0001 T02110189 =
2018-08-17 07:54 METAR KFZY 171154Z AUTO 17009G16KT 3SM -RA BR FEW011 BKN028 OVC070 21/19 A3001
                 RMK AO2 SLP160 P0013 60018 70018 T02110189 10222 20211 50004 =
2018-08-17 07:47 METAR KFZY 171147Z AUTO 17007KT 2SM RA BR SCT015 BKN033 OVC075 21/19 A3001 RMK
                 AO2 P0012 T02110189 =
2018-08-17 07:40 METAR KFZY 171140Z AUTO 17008KT 2 1/2SM RA BR SCT015 BKN029 OVC070 21/19 A3002
                 RMK AO2 P0010 T02110189 =
2018-08-17 06:54 METAR KFZY 171054Z AUTO 18005KT 4SM RA FEW060 FEW070 OVC110 22/19 A3002 RMK AO2
                 SLP163 P0005 T02170189 =
2018-08-17 05:54 METAR KFZY 170954Z AUTO 00000KT 8SM -RA SCT075 OVC095 22/19 A3001 RMK AO2 RAB52
                 SLP158 P0000 T02170189 =
2018-08-17 04:54 METAR KFZY 170854Z AUTO VRB03KT 9SM CLR 22/19 A3000 RMK AO2 SLP155 60000
                 T02220189 58013 =
2018-08-17 03:54 METAR KFZY 170754Z AUTO 13003KT 9SM SCT100 SCT120 22/19 A3002 RMK AO2 RAB11E23
                 SLP161 P0000 T02220189 =
2018-08-17 02:54 METAR KFZY 170654Z AUTO 13003KT 10SM CLR 22/19 A3003 RMK AO2 SLP164 T02220189 =
2018-08-17 01:54 METAR KFZY 170554Z AUTO 00000KT 10SM CLR 22/19 A3004 RMK AO2 SLP168 60000
                 T02170189 10250 20211 58002 =
2018-08-17 00:54 METAR KFZY 170454Z AUTO 00000KT 8SM CLR 21/19 A3004 RMK AO2 SLP171 T02110189
                 403000206 =
2018-08-16 23:54 METAR KFZY 170354Z AUTO VRB03KT 10SM CLR 22/19 A3005 RMK AO2 SLP173 T02220189 =
2018-08-16 22:54 METAR KFZY 170254Z AUTO 13003KT 10SM BKN100 24/19 A3005 RMK AO2 RAE03 SLP172
                 P0000 60000 T02390189 50003 =

Support USWX by starting your Amazon purchase here.